sensor_id;sensor_type;location;lat;lon;timestamp;P1;durP1;ratioP1;P2;durP2;ratioP2
59273;SDS011;45044;41.572;24.730;2023-03-01T00:01:17;37.75;;;19.02;;
59273;SDS011;45044;41.572;24.730;2023-03-01T00:03:48;20.20;;;9.27;;
59273;SDS011;45044;41.572;24.730;2023-03-01T00:06:16;10.50;;;5.43;;
59273;SDS011;45044;41.572;24.730;2023-03-01T00:08:43;11.52;;;5.30;;
59273;SDS011;45044;41.572;24.730;2023-03-01T00:11:14;9.73;;;6.22;;
59273;SDS011;45044;41.572;24.730;2023-03-01T00:13:41;14.48;;;6.80;;
59273;SDS011;45044;41.572;24.730;2023-03-01T00:16:13;10.43;;;5.82;;
59273;SDS011;45044;41.572;24.730;2023-03-01T00:18:41;9.85;;;4.78;;
59273;SDS011;45044;41.572;24.730;2023-03-01T00:21:08;11.23;;;6.43;;
59273;SDS011;45044;41.572;24.730;2023-03-01T00:23:35;12.82;;;7.22;;
59273;SDS011;45044;41.572;24.730;2023-03-01T00:26:05;14.25;;;8.57;;
59273;SDS011;45044;41.572;24.730;2023-03-01T00:28:36;14.35;;;8.50;;
59273;SDS011;45044;41.572;24.730;2023-03-01T00:31:04;13.02;;;7.88;;
59273;SDS011;45044;41.572;24.730;2023-03-01T00:33:38;17.25;;;8.73;;
59273;SDS011;45044;41.572;24.730;2023-03-01T00:36:05;16.30;;;9.63;;
59273;SDS011;45044;41.572;24.730;2023-03-01T00:38:37;18.95;;;10.40;;
59273;SDS011;45044;41.572;24.730;2023-03-01T00:41:08;15.73;;;9.32;;
59273;SDS011;45044;41.572;24.730;2023-03-01T00:43:37;12.98;;;7.75;;
59273;SDS011;45044;41.572;24.730;2023-03-01T00:46:05;11.75;;;6.85;;
59273;SDS011;45044;41.572;24.730;2023-03-01T00:48:34;13.82;;;8.60;;
59273;SDS011;45044;41.572;24.730;2023-03-01T00:51:08;12.52;;;7.85;;
59273;SDS011;45044;41.572;24.730;2023-03-01T00:53:36;13.43;;;7.50;;
59273;SDS011;45044;41.572;24.730;2023-03-01T00:56:04;15.38;;;7.70;;
59273;SDS011;45044;41.572;24.730;2023-03-01T00:58:32;11.65;;;7.28;;
59273;SDS011;45044;41.572;24.730;2023-03-01T01:01:00;13.25;;;7.68;;
59273;SDS011;45044;41.572;24.730;2023-03-01T01:03:27;14.40;;;7.82;;
59273;SDS011;45044;41.572;24.730;2023-03-01T01:05:54;12.55;;;7.13;;
59273;SDS011;45044;41.572;24.730;2023-03-01T01:08:20;12.48;;;7.32;;
59273;SDS011;45044;41.572;24.730;2023-03-01T01:10:47;11.63;;;7.57;;
59273;SDS011;45044;41.572;24.730;2023-03-01T01:13:14;12.45;;;8.68;;
59273;SDS011;45044;41.572;24.730;2023-03-01T01:15:41;15.02;;;9.15;;
59273;SDS011;45044;41.572;24.730;2023-03-01T01:18:08;15.23;;;9.10;;
59273;SDS011;45044;41.572;24.730;2023-03-01T01:20:35;18.13;;;10.63;;
59273;SDS011;45044;41.572;24.730;2023-03-01T01:23:04;13.18;;;8.52;;
59273;SDS011;45044;41.572;24.730;2023-03-01T01:25:33;9.00;;;5.00;;
59273;SDS011;45044;41.572;24.730;2023-03-01T01:28:02;9.43;;;5.40;;
59273;SDS011;45044;41.572;24.730;2023-03-01T01:30:29;10.98;;;6.90;;
59273;SDS011;45044;41.572;24.730;2023-03-01T01:32:56;14.45;;;7.63;;
59273;SDS011;45044;41.572;24.730;2023-03-01T01:35:23;13.02;;;8.15;;
59273;SDS011;45044;41.572;24.730;2023-03-01T01:37:49;19.70;;;9.60;;
59273;SDS011;45044;41.572;24.730;2023-03-01T01:40:16;17.95;;;9.80;;
59273;SDS011;45044;41.572;24.730;2023-03-01T01:42:43;19.13;;;11.65;;
59273;SDS011;45044;41.572;24.730;2023-03-01T01:47:56;18.20;;;10.10;;
59273;SDS011;45044;41.572;24.730;2023-03-01T01:50:27;16.08;;;9.60;;
59273;SDS011;45044;41.572;24.730;2023-03-01T01:53:09;17.27;;;9.95;;
59273;SDS011;45044;41.572;24.730;2023-03-01T01:55:41;16.00;;;9.48;;
59273;SDS011;45044;41.572;24.730;2023-03-01T01:58:12;15.52;;;9.30;;
59273;SDS011;45044;41.572;24.730;2023-03-01T02:00:42;14.23;;;8.85;;
59273;SDS011;45044;41.572;24.730;2023-03-01T02:03:13;15.32;;;8.45;;
59273;SDS011;45044;41.572;24.730;2023-03-01T02:05:49;14.05;;;7.65;;
59273;SDS011;45044;41.572;24.730;2023-03-01T02:08:21;13.13;;;7.30;;
59273;SDS011;45044;41.572;24.730;2023-03-01T02:10:51;9.82;;;5.80;;
59273;SDS011;45044;41.572;24.730;2023-03-01T02:13:21;10.27;;;5.75;;
59273;SDS011;45044;41.572;24.730;2023-03-01T02:15:47;10.65;;;6.03;;
59273;SDS011;45044;41.572;24.730;2023-03-01T02:18:17;11.43;;;6.63;;
59273;SDS011;45044;41.572;24.730;2023-03-01T02:23:36;10.55;;;7.53;;
59273;SDS011;45044;41.572;24.730;2023-03-01T02:28:58;13.25;;;7.60;;
59273;SDS011;45044;41.572;24.730;2023-03-01T02:31:25;11.07;;;6.45;;
59273;SDS011;45044;41.572;24.730;2023-03-01T02:34:18;12.27;;;6.63;;
59273;SDS011;45044;41.572;24.730;2023-03-01T02:36:49;11.82;;;6.80;;
59273;SDS011;45044;41.572;24.730;2023-03-01T02:39:22;15.45;;;9.10;;
59273;SDS011;45044;41.572;24.730;2023-03-01T02:41:53;13.95;;;7.22;;
59273;SDS011;45044;41.572;24.730;2023-03-01T02:44:22;11.27;;;6.45;;
59273;SDS011;45044;41.572;24.730;2023-03-01T02:46:53;11.07;;;6.75;;
59273;SDS011;45044;41.572;24.730;2023-03-01T02:49:26;12.13;;;7.28;;
59273;SDS011;45044;41.572;24.730;2023-03-01T02:54:47;13.55;;;8.05;;
59273;SDS011;45044;41.572;24.730;2023-03-01T02:57:36;12.23;;;6.00;;
59273;SDS011;45044;41.572;24.730;2023-03-01T03:00:08;12.60;;;7.60;;
59273;SDS011;45044;41.572;24.730;2023-03-01T03:02:37;11.30;;;7.25;;
59273;SDS011;45044;41.572;24.730;2023-03-01T03:07:39;15.05;;;8.20;;
59273;SDS011;45044;41.572;24.730;2023-03-01T03:10:09;14.27;;;7.40;;
59273;SDS011;45044;41.572;24.730;2023-03-01T03:12:38;12.77;;;7.50;;
59273;SDS011;45044;41.572;24.730;2023-03-01T03:15:06;11.23;;;6.72;;
59273;SDS011;45044;41.572;24.730;2023-03-01T03:17:36;14.35;;;7.32;;
59273;SDS011;45044;41.572;24.730;2023-03-01T03:20:03;13.05;;;7.25;;
59273;SDS011;45044;41.572;24.730;2023-03-01T03:22:31;11.70;;;6.88;;
59273;SDS011;45044;41.572;24.730;2023-03-01T03:25:00;11.73;;;7.03;;
59273;SDS011;45044;41.572;24.730;2023-03-01T03:27:27;10.93;;;6.60;;
59273;SDS011;45044;41.572;24.730;2023-03-01T03:29:54;10.07;;;5.72;;
59273;SDS011;45044;41.572;24.730;2023-03-01T03:32:21;11.60;;;6.95;;
59273;SDS011;45044;41.572;24.730;2023-03-01T03:34:47;13.50;;;8.48;;
59273;SDS011;45044;41.572;24.730;2023-03-01T03:37:15;11.68;;;7.20;;
59273;SDS011;45044;41.572;24.730;2023-03-01T03:40:00;10.05;;;5.55;;
59273;SDS011;45044;41.572;24.730;2023-03-01T03:42:27;10.60;;;5.90;;
59273;SDS011;45044;41.572;24.730;2023-03-01T03:44:54;9.98;;;5.68;;
59273;SDS011;45044;41.572;24.730;2023-03-01T03:47:20;9.43;;;5.68;;
59273;SDS011;45044;41.572;24.730;2023-03-01T03:49:47;10.32;;;6.60;;
59273;SDS011;45044;41.572;24.730;2023-03-01T03:52:14;9.80;;;5.88;;
59273;SDS011;45044;41.572;24.730;2023-03-01T03:54:40;9.55;;;5.90;;
59273;SDS011;45044;41.572;24.730;2023-03-01T03:57:07;9.80;;;4.95;;
59273;SDS011;45044;41.572;24.730;2023-03-01T03:59:51;40.53;;;21.67;;
59273;SDS011;45044;41.572;24.730;2023-03-01T04:02:18;27.85;;;16.80;;
59273;SDS011;45044;41.572;24.730;2023-03-01T04:04:48;29.92;;;21.90;;
59273;SDS011;45044;41.572;24.730;2023-03-01T04:07:17;67.20;;;48.35;;
59273;SDS011;45044;41.572;24.730;2023-03-01T04:09:45;43.53;;;29.83;;
59273;SDS011;45044;41.572;24.730;2023-03-01T04:12:11;34.65;;;23.23;;
59273;SDS011;45044;41.572;24.730;2023-03-01T04:14:48;57.58;;;37.25;;
59273;SDS011;45044;41.572;24.730;2023-03-01T04:17:15;38.45;;;25.23;;
59273;SDS011;45044;41.572;24.730;2023-03-01T04:19:42;33.00;;;23.27;;
59273;SDS011;45044;41.572;24.730;2023-03-01T04:22:10;38.50;;;26.27;;
59273;SDS011;45044;41.572;24.730;2023-03-01T04:24:37;56.13;;;33.00;;
59273;SDS011;45044;41.572;24.730;2023-03-01T04:27:04;37.38;;;25.48;;
59273;SDS011;45044;41.572;24.730;2023-03-01T04:29:31;27.00;;;19.67;;
59273;SDS011;45044;41.572;24.730;2023-03-01T04:31:57;17.15;;;11.77;;
59273;SDS011;45044;41.572;24.730;2023-03-01T04:34:25;42.35;;;28.60;;
59273;SDS011;45044;41.572;24.730;2023-03-01T04:36:53;38.28;;;24.63;;
59273;SDS011;45044;41.572;24.730;2023-03-01T04:39:19;67.18;;;44.60;;
59273;SDS011;45044;41.572;24.730;2023-03-01T04:41:47;48.40;;;32.92;;
59273;SDS011;45044;41.572;24.730;2023-03-01T04:44:14;42.38;;;29.33;;
59273;SDS011;45044;41.572;24.730;2023-03-01T04:46:40;31.77;;;20.85;;
59273;SDS011;45044;41.572;24.730;2023-03-01T04:49:07;33.58;;;22.35;;
59273;SDS011;45044;41.572;24.730;2023-03-01T04:51:34;44.60;;;30.58;;
59273;SDS011;45044;41.572;24.730;2023-03-01T04:54:00;42.95;;;30.52;;
59273;SDS011;45044;41.572;24.730;2023-03-01T04:56:27;59.40;;;38.08;;
59273;SDS011;45044;41.572;24.730;2023-03-01T04:58:54;64.72;;;43.63;;
59273;SDS011;45044;41.572;24.730;2023-03-01T05:01:21;41.85;;;28.85;;
59273;SDS011;45044;41.572;24.730;2023-03-01T05:03:49;28.20;;;19.90;;
59273;SDS011;45044;41.572;24.730;2023-03-01T05:06:17;36.92;;;26.00;;
59273;SDS011;45044;41.572;24.730;2023-03-01T05:08:46;94.70;;;61.65;;
59273;SDS011;45044;41.572;24.730;2023-03-01T05:11:12;80.43;;;51.60;;
59273;SDS011;45044;41.572;24.730;2023-03-01T05:13:39;31.73;;;21.52;;
59273;SDS011;45044;41.572;24.730;2023-03-01T05:16:08;66.20;;;43.80;;
59273;SDS011;45044;41.572;24.730;2023-03-01T05:18:39;49.85;;;33.13;;
59273;SDS011;45044;41.572;24.730;2023-03-01T05:21:10;33.83;;;24.20;;
59273;SDS011;45044;41.572;24.730;2023-03-01T05:23:42;61.58;;;41.78;;
59273;SDS011;45044;41.572;24.730;2023-03-01T05:26:09;54.58;;;35.22;;
59273;SDS011;45044;41.572;24.730;2023-03-01T05:28:52;97.72;;;65.13;;
59273;SDS011;45044;41.572;24.730;2023-03-01T05:31:22;65.75;;;42.10;;
59273;SDS011;45044;41.572;24.730;2023-03-01T05:33:49;74.70;;;49.38;;
59273;SDS011;45044;41.572;24.730;2023-03-01T05:36:16;73.28;;;49.75;;
59273;SDS011;45044;41.572;24.730;2023-03-01T05:38:44;44.90;;;29.33;;
59273;SDS011;45044;41.572;24.730;2023-03-01T05:41:14;34.30;;;21.17;;
59273;SDS011;45044;41.572;24.730;2023-03-01T05:43:43;33.20;;;23.30;;
59273;SDS011;45044;41.572;24.730;2023-03-01T05:46:11;101.10;;;67.70;;
59273;SDS011;45044;41.572;24.730;2023-03-01T05:48:39;73.97;;;48.70;;
59273;SDS011;45044;41.572;24.730;2023-03-01T05:51:06;48.05;;;32.50;;
59273;SDS011;45044;41.572;24.730;2023-03-01T05:53:33;32.65;;;25.35;;
59273;SDS011;45044;41.572;24.730;2023-03-01T05:56:02;86.82;;;54.83;;
59273;SDS011;45044;41.572;24.730;2023-03-01T05:58:30;68.45;;;46.00;;
59273;SDS011;45044;41.572;24.730;2023-03-01T06:00:57;72.32;;;48.17;;
59273;SDS011;45044;41.572;24.730;2023-03-01T06:03:24;76.38;;;48.63;;
59273;SDS011;45044;41.572;24.730;2023-03-01T06:05:55;74.35;;;50.22;;
59273;SDS011;45044;41.572;24.730;2023-03-01T06:08:23;38.58;;;23.25;;
59273;SDS011;45044;41.572;24.730;2023-03-01T06:10:50;34.05;;;22.60;;
59273;SDS011;45044;41.572;24.730;2023-03-01T06:13:17;35.03;;;25.50;;
59273;SDS011;45044;41.572;24.730;2023-03-01T06:15:43;37.58;;;28.85;;
59273;SDS011;45044;41.572;24.730;2023-03-01T06:18:10;33.08;;;25.30;;
59273;SDS011;45044;41.572;24.730;2023-03-01T06:20:37;27.25;;;21.13;;
59273;SDS011;45044;41.572;24.730;2023-03-01T06:23:04;26.98;;;20.95;;
59273;SDS011;45044;41.572;24.730;2023-03-01T06:25:30;18.55;;;12.82;;
59273;SDS011;45044;41.572;24.730;2023-03-01T06:27:57;24.73;;;18.98;;
59273;SDS011;45044;41.572;24.730;2023-03-01T06:30:25;38.03;;;24.30;;
59273;SDS011;45044;41.572;24.730;2023-03-01T06:32:52;27.08;;;19.20;;
59273;SDS011;45044;41.572;24.730;2023-03-01T06:35:27;27.90;;;18.40;;
59273;SDS011;45044;41.572;24.730;2023-03-01T06:37:56;22.67;;;15.57;;
59273;SDS011;45044;41.572;24.730;2023-03-01T06:40:24;29.67;;;22.75;;
59273;SDS011;45044;41.572;24.730;2023-03-01T06:42:51;23.75;;;18.63;;
59273;SDS011;45044;41.572;24.730;2023-03-01T06:45:18;22.52;;;16.92;;
59273;SDS011;45044;41.572;24.730;2023-03-01T06:47:46;25.50;;;18.45;;
59273;SDS011;45044;41.572;24.730;2023-03-01T06:50:14;25.83;;;18.80;;
59273;SDS011;45044;41.572;24.730;2023-03-01T06:52:41;31.60;;;25.45;;
59273;SDS011;45044;41.572;24.730;2023-03-01T06:55:11;30.02;;;22.25;;
59273;SDS011;45044;41.572;24.730;2023-03-01T06:57:38;18.83;;;13.45;;
59273;SDS011;45044;41.572;24.730;2023-03-01T07:00:05;40.28;;;22.40;;
59273;SDS011;45044;41.572;24.730;2023-03-01T07:02:33;48.85;;;28.65;;
59273;SDS011;45044;41.572;24.730;2023-03-01T07:05:00;28.83;;;20.65;;
59273;SDS011;45044;41.572;24.730;2023-03-01T07:07:27;26.15;;;18.15;;
59273;SDS011;45044;41.572;24.730;2023-03-01T07:09:54;24.13;;;17.92;;
59273;SDS011;45044;41.572;24.730;2023-03-01T07:12:20;24.00;;;19.20;;
59273;SDS011;45044;41.572;24.730;2023-03-01T07:14:47;22.95;;;17.30;;
59273;SDS011;45044;41.572;24.730;2023-03-01T07:17:14;29.55;;;22.75;;
59273;SDS011;45044;41.572;24.730;2023-03-01T07:19:41;28.15;;;20.90;;
59273;SDS011;45044;41.572;24.730;2023-03-01T07:22:07;26.70;;;20.90;;
59273;SDS011;45044;41.572;24.730;2023-03-01T07:24:35;30.40;;;23.25;;
59273;SDS011;45044;41.572;24.730;2023-03-01T07:27:02;31.92;;;22.55;;
59273;SDS011;45044;41.572;24.730;2023-03-01T07:29:29;25.25;;;18.98;;
59273;SDS011;45044;41.572;24.730;2023-03-01T07:31:56;31.98;;;24.30;;
59273;SDS011;45044;41.572;24.730;2023-03-01T07:34:23;29.67;;;20.35;;
59273;SDS011;45044;41.572;24.730;2023-03-01T07:36:50;29.58;;;22.60;;
59273;SDS011;45044;41.572;24.730;2023-03-01T07:39:16;28.83;;;20.60;;
59273;SDS011;45044;41.572;24.730;2023-03-01T07:41:45;29.42;;;22.35;;
59273;SDS011;45044;41.572;24.730;2023-03-01T07:44:12;26.58;;;21.60;;
59273;SDS011;45044;41.572;24.730;2023-03-01T07:46:38;35.13;;;22.80;;
59273;SDS011;45044;41.572;24.730;2023-03-01T07:49:05;40.55;;;26.42;;
59273;SDS011;45044;41.572;24.730;2023-03-01T07:51:34;26.48;;;19.15;;
59273;SDS011;45044;41.572;24.730;2023-03-01T07:54:01;27.75;;;20.27;;
59273;SDS011;45044;41.572;24.730;2023-03-01T07:56:28;25.38;;;19.35;;
59273;SDS011;45044;41.572;24.730;2023-03-01T07:58:55;24.50;;;18.42;;
59273;SDS011;45044;41.572;24.730;2023-03-01T08:01:24;24.10;;;19.20;;
59273;SDS011;45044;41.572;24.730;2023-03-01T08:03:51;29.25;;;21.13;;
59273;SDS011;45044;41.572;24.730;2023-03-01T08:06:18;28.17;;;20.40;;
59273;SDS011;45044;41.572;24.730;2023-03-01T08:08:45;22.40;;;17.52;;
59273;SDS011;45044;41.572;24.730;2023-03-01T08:11:14;21.50;;;16.73;;
59273;SDS011;45044;41.572;24.730;2023-03-01T08:13:42;22.23;;;16.75;;
59273;SDS011;45044;41.572;24.730;2023-03-01T08:16:11;25.27;;;18.35;;
59273;SDS011;45044;41.572;24.730;2023-03-01T08:18:39;43.95;;;27.10;;
59273;SDS011;45044;41.572;24.730;2023-03-01T08:21:08;25.95;;;17.45;;
59273;SDS011;45044;41.572;24.730;2023-03-01T08:23:39;20.85;;;15.48;;
59273;SDS011;45044;41.572;24.730;2023-03-01T08:26:11;17.77;;;13.30;;
59273;SDS011;45044;41.572;24.730;2023-03-01T08:28:40;89.57;;;41.78;;
59273;SDS011;45044;41.572;24.730;2023-03-01T08:33:56;18.52;;;11.27;;
59273;SDS011;45044;41.572;24.730;2023-03-01T08:36:28;14.88;;;8.77;;
59273;SDS011;45044;41.572;24.730;2023-03-01T08:39:01;14.57;;;8.98;;
59273;SDS011;45044;41.572;24.730;2023-03-01T08:41:28;18.98;;;12.15;;
59273;SDS011;45044;41.572;24.730;2023-03-01T08:43:55;14.85;;;9.30;;
59273;SDS011;45044;41.572;24.730;2023-03-01T08:46:32;17.48;;;11.27;;
59273;SDS011;45044;41.572;24.730;2023-03-01T08:49:04;19.88;;;12.88;;
59273;SDS011;45044;41.572;24.730;2023-03-01T08:51:35;28.90;;;21.00;;
59273;SDS011;45044;41.572;24.730;2023-03-01T08:54:06;22.65;;;15.77;;
59273;SDS011;45044;41.572;24.730;2023-03-01T08:56:37;26.70;;;15.57;;
59273;SDS011;45044;41.572;24.730;2023-03-01T08:59:13;39.30;;;25.17;;
59273;SDS011;45044;41.572;24.730;2023-03-01T09:01:41;25.13;;;17.23;;
59273;SDS011;45044;41.572;24.730;2023-03-01T09:04:11;33.75;;;19.60;;
59273;SDS011;45044;41.572;24.730;2023-03-01T09:06:39;43.20;;;29.05;;
59273;SDS011;45044;41.572;24.730;2023-03-01T09:09:06;30.25;;;20.15;;
59273;SDS011;45044;41.572;24.730;2023-03-01T09:11:38;26.45;;;18.08;;
59273;SDS011;45044;41.572;24.730;2023-03-01T09:14:04;29.27;;;20.92;;
59273;SDS011;45044;41.572;24.730;2023-03-01T09:16:31;28.38;;;19.02;;
59273;SDS011;45044;41.572;24.730;2023-03-01T09:19:02;24.23;;;17.63;;
59273;SDS011;45044;41.572;24.730;2023-03-01T09:21:29;29.65;;;21.33;;
59273;SDS011;45044;41.572;24.730;2023-03-01T09:24:11;23.85;;;16.30;;
59273;SDS011;45044;41.572;24.730;2023-03-01T09:26:40;28.48;;;19.75;;
59273;SDS011;45044;41.572;24.730;2023-03-01T09:29:08;27.65;;;19.92;;
59273;SDS011;45044;41.572;24.730;2023-03-01T09:31:36;38.42;;;23.98;;
59273;SDS011;45044;41.572;24.730;2023-03-01T09:34:04;42.05;;;29.33;;
59273;SDS011;45044;41.572;24.730;2023-03-01T09:36:31;28.25;;;18.45;;
59273;SDS011;45044;41.572;24.730;2023-03-01T09:38:59;27.63;;;18.60;;
59273;SDS011;45044;41.572;24.730;2023-03-01T09:46:54;28.95;;;18.50;;
59273;SDS011;45044;41.572;24.730;2023-03-01T09:49:30;25.38;;;16.55;;
59273;SDS011;45044;41.572;24.730;2023-03-01T09:54:32;22.42;;;14.60;;
59273;SDS011;45044;41.572;24.730;2023-03-01T10:00:07;29.38;;;18.70;;
59273;SDS011;45044;41.572;24.730;2023-03-01T10:12:58;26.67;;;20.65;;
59273;SDS011;45044;41.572;24.730;2023-03-01T10:15:37;34.15;;;22.08;;
59273;SDS011;45044;41.572;24.730;2023-03-01T10:18:14;26.52;;;20.65;;
59273;SDS011;45044;41.572;24.730;2023-03-01T10:20:50;29.58;;;19.80;;
59273;SDS011;45044;41.572;24.730;2023-03-01T10:23:20;27.17;;;18.42;;
59273;SDS011;45044;41.572;24.730;2023-03-01T10:28:46;26.13;;;20.30;;
59273;SDS011;45044;41.572;24.730;2023-03-01T10:31:14;19.50;;;14.13;;
59273;SDS011;45044;41.572;24.730;2023-03-01T10:33:47;25.98;;;20.08;;
59273;SDS011;45044;41.572;24.730;2023-03-01T10:36:17;26.30;;;22.65;;
59273;SDS011;45044;41.572;24.730;2023-03-01T10:38:55;30.40;;;22.38;;
59273;SDS011;45044;41.572;24.730;2023-03-01T10:41:25;32.00;;;24.83;;
59273;SDS011;45044;41.572;24.730;2023-03-01T10:43:55;26.60;;;21.33;;
59273;SDS011;45044;41.572;24.730;2023-03-01T10:49:12;21.42;;;16.33;;
59273;SDS011;45044;41.572;24.730;2023-03-01T10:51:46;18.92;;;14.25;;
59273;SDS011;45044;41.572;24.730;2023-03-01T10:54:19;23.10;;;16.60;;
59273;SDS011;45044;41.572;24.730;2023-03-01T10:56:55;22.45;;;16.60;;
59273;SDS011;45044;41.572;24.730;2023-03-01T10:59:30;23.35;;;18.55;;
59273;SDS011;45044;41.572;24.730;2023-03-01T11:07:46;23.42;;;16.55;;
59273;SDS011;45044;41.572;24.730;2023-03-01T11:10:17;15.55;;;9.30;;
59273;SDS011;45044;41.572;24.730;2023-03-01T11:12:45;12.70;;;9.57;;
59273;SDS011;45044;41.572;24.730;2023-03-01T11:15:27;16.52;;;10.32;;
59273;SDS011;45044;41.572;24.730;2023-03-01T11:17:55;13.70;;;8.35;;
59273;SDS011;45044;41.572;24.730;2023-03-01T11:20:38;11.15;;;5.63;;
59273;SDS011;45044;41.572;24.730;2023-03-01T11:23:08;17.27;;;10.85;;
59273;SDS011;45044;41.572;24.730;2023-03-01T11:25:40;12.52;;;6.00;;
59273;SDS011;45044;41.572;24.730;2023-03-01T11:28:14;12.40;;;8.18;;
59273;SDS011;45044;41.572;24.730;2023-03-01T11:39:37;15.23;;;12.70;;
59273;SDS011;45044;41.572;24.730;2023-03-01T11:42:02;19.23;;;15.52;;
59273;SDS011;45044;41.572;24.730;2023-03-01T11:44:45;18.25;;;13.02;;
59273;SDS011;45044;41.572;24.730;2023-03-01T11:47:38;19.83;;;15.40;;
59273;SDS011;45044;41.572;24.730;2023-03-01T11:50:53;21.65;;;17.67;;
59273;SDS011;45044;41.572;24.730;2023-03-01T11:53:38;21.30;;;17.52;;
59273;SDS011;45044;41.572;24.730;2023-03-01T12:21:10;27.67;;;22.85;;
59273;SDS011;45044;41.572;24.730;2023-03-01T12:26:29;27.67;;;23.02;;
59273;SDS011;45044;41.572;24.730;2023-03-01T12:34:40;17.42;;;14.82;;
59273;SDS011;45044;41.572;24.730;2023-03-01T12:43:31;21.20;;;16.52;;
59273;SDS011;45044;41.572;24.730;2023-03-01T12:49:15;18.88;;;11.52;;
59273;SDS011;45044;41.572;24.730;2023-03-01T12:55:34;24.13;;;13.68;;
59273;SDS011;45044;41.572;24.730;2023-03-01T12:58:27;18.30;;;16.33;;
59273;SDS011;45044;41.572;24.730;2023-03-01T13:15:40;22.02;;;17.63;;
59273;SDS011;45044;41.572;24.730;2023-03-01T13:18:29;25.85;;;20.98;;
59273;SDS011;45044;41.572;24.730;2023-03-01T13:21:16;26.38;;;21.67;;
59273;SDS011;45044;41.572;24.730;2023-03-01T13:24:27;24.83;;;20.60;;
59273;SDS011;45044;41.572;24.730;2023-03-01T13:27:23;23.38;;;19.50;;
59273;SDS011;45044;41.572;24.730;2023-03-01T13:35:54;26.05;;;21.05;;
59273;SDS011;45044;41.572;24.730;2023-03-01T13:41:17;26.98;;;20.55;;
59273;SDS011;45044;41.572;24.730;2023-03-01T13:44:38;20.77;;;16.80;;
59273;SDS011;45044;41.572;24.730;2023-03-01T13:47:14;22.15;;;16.30;;
59273;SDS011;45044;41.572;24.730;2023-03-01T13:50:00;26.27;;;17.30;;
59273;SDS011;45044;41.572;24.730;2023-03-01T13:52:42;24.73;;;17.52;;
59273;SDS011;45044;41.572;24.730;2023-03-01T13:57:47;29.02;;;23.15;;
59273;SDS011;45044;41.572;24.730;2023-03-01T14:00:36;29.05;;;22.00;;
59273;SDS011;45044;41.572;24.730;2023-03-01T14:03:12;30.15;;;24.20;;
59273;SDS011;45044;41.572;24.730;2023-03-01T14:06:03;41.83;;;31.20;;
59273;SDS011;45044;41.572;24.730;2023-03-01T14:08:41;27.35;;;21.70;;
59273;SDS011;45044;41.572;24.730;2023-03-01T14:19:32;32.58;;;23.63;;
59273;SDS011;45044;41.572;24.730;2023-03-01T14:24:56;39.55;;;32.30;;
59273;SDS011;45044;41.572;24.730;2023-03-01T14:27:38;38.58;;;29.83;;
59273;SDS011;45044;41.572;24.730;2023-03-01T14:30:12;23.17;;;17.23;;
59273;SDS011;45044;41.572;24.730;2023-03-01T14:32:51;18.77;;;14.00;;
59273;SDS011;45044;41.572;24.730;2023-03-01T14:35:27;25.52;;;19.85;;
59273;SDS011;45044;41.572;24.730;2023-03-01T14:37:57;23.88;;;18.10;;
59273;SDS011;45044;41.572;24.730;2023-03-01T14:40:32;22.67;;;16.75;;
59273;SDS011;45044;41.572;24.730;2023-03-01T14:43:03;19.48;;;15.77;;
59273;SDS011;45044;41.572;24.730;2023-03-01T14:45:36;24.05;;;18.08;;
59273;SDS011;45044;41.572;24.730;2023-03-01T14:48:13;21.73;;;14.50;;
59273;SDS011;45044;41.572;24.730;2023-03-01T14:50:41;24.48;;;16.38;;
59273;SDS011;45044;41.572;24.730;2023-03-01T14:53:19;51.88;;;32.20;;
59273;SDS011;45044;41.572;24.730;2023-03-01T14:55:52;25.98;;;18.58;;
59273;SDS011;45044;41.572;24.730;2023-03-01T14:58:21;42.03;;;26.42;;
59273;SDS011;45044;41.572;24.730;2023-03-01T15:03:30;20.08;;;14.80;;
59273;SDS011;45044;41.572;24.730;2023-03-01T15:06:01;59.17;;;35.40;;
59273;SDS011;45044;41.572;24.730;2023-03-01T15:08:29;15.65;;;10.40;;
59273;SDS011;45044;41.572;24.730;2023-03-01T15:11:01;27.52;;;19.02;;
59273;SDS011;45044;41.572;24.730;2023-03-01T15:13:43;40.30;;;22.95;;
59273;SDS011;45044;41.572;24.730;2023-03-01T15:16:13;27.92;;;20.20;;
59273;SDS011;45044;41.572;24.730;2023-03-01T15:18:48;18.65;;;14.10;;
59273;SDS011;45044;41.572;24.730;2023-03-01T15:21:22;20.75;;;14.27;;
59273;SDS011;45044;41.572;24.730;2023-03-01T15:27:04;31.80;;;19.27;;
59273;SDS011;45044;41.572;24.730;2023-03-01T15:29:34;23.35;;;14.70;;
59273;SDS011;45044;41.572;24.730;2023-03-01T15:32:22;31.05;;;18.33;;
59273;SDS011;45044;41.572;24.730;2023-03-01T15:34:59;29.63;;;20.58;;
59273;SDS011;45044;41.572;24.730;2023-03-01T15:37:47;24.33;;;16.75;;
59273;SDS011;45044;41.572;24.730;2023-03-01T15:40:19;28.80;;;16.85;;
59273;SDS011;45044;41.572;24.730;2023-03-01T15:42:47;26.60;;;17.85;;
59273;SDS011;45044;41.572;24.730;2023-03-01T15:47:56;22.52;;;17.25;;
59273;SDS011;45044;41.572;24.730;2023-03-01T15:50:29;16.08;;;11.18;;
59273;SDS011;45044;41.572;24.730;2023-03-01T15:52:59;16.02;;;13.20;;
59273;SDS011;45044;41.572;24.730;2023-03-01T15:55:28;12.65;;;10.07;;
59273;SDS011;45044;41.572;24.730;2023-03-01T15:58:09;16.10;;;12.45;;
59273;SDS011;45044;41.572;24.730;2023-03-01T16:00:39;18.65;;;13.32;;
59273;SDS011;45044;41.572;24.730;2023-03-01T16:03:23;15.05;;;9.65;;
59273;SDS011;45044;41.572;24.730;2023-03-01T16:05:50;31.58;;;22.98;;
59273;SDS011;45044;41.572;24.730;2023-03-01T16:08:18;31.92;;;21.40;;
59273;SDS011;45044;41.572;24.730;2023-03-01T16:10:45;26.02;;;20.90;;
59273;SDS011;45044;41.572;24.730;2023-03-01T16:13:13;16.33;;;12.48;;
59273;SDS011;45044;41.572;24.730;2023-03-01T16:15:40;20.92;;;14.90;;
59273;SDS011;45044;41.572;24.730;2023-03-01T16:18:08;13.23;;;11.07;;
59273;SDS011;45044;41.572;24.730;2023-03-01T16:20:36;21.13;;;15.02;;
59273;SDS011;45044;41.572;24.730;2023-03-01T16:23:05;23.15;;;15.23;;
59273;SDS011;45044;41.572;24.730;2023-03-01T16:25:34;20.55;;;14.70;;
59273;SDS011;45044;41.572;24.730;2023-03-01T16:28:01;23.73;;;18.02;;
59273;SDS011;45044;41.572;24.730;2023-03-01T16:30:31;24.52;;;18.42;;
59273;SDS011;45044;41.572;24.730;2023-03-01T16:32:58;16.73;;;12.48;;
59273;SDS011;45044;41.572;24.730;2023-03-01T16:35:25;29.65;;;20.35;;
59273;SDS011;45044;41.572;24.730;2023-03-01T16:37:53;41.63;;;30.05;;
59273;SDS011;45044;41.572;24.730;2023-03-01T16:40:21;47.88;;;31.33;;
59273;SDS011;45044;41.572;24.730;2023-03-01T16:42:48;39.28;;;27.17;;
59273;SDS011;45044;41.572;24.730;2023-03-01T16:45:16;35.10;;;27.13;;
59273;SDS011;45044;41.572;24.730;2023-03-01T16:47:50;17.17;;;11.10;;
59273;SDS011;45044;41.572;24.730;2023-03-01T16:50:21;20.53;;;16.13;;
59273;SDS011;45044;41.572;24.730;2023-03-01T16:52:47;35.53;;;27.52;;
59273;SDS011;45044;41.572;24.730;2023-03-01T16:55:14;33.80;;;25.90;;
59273;SDS011;45044;41.572;24.730;2023-03-01T16:57:41;75.90;;;44.58;;
59273;SDS011;45044;41.572;24.730;2023-03-01T17:00:09;39.45;;;27.13;;
59273;SDS011;45044;41.572;24.730;2023-03-01T17:02:40;23.27;;;17.02;;
59273;SDS011;45044;41.572;24.730;2023-03-01T17:05:08;42.97;;;30.58;;